Time;durP1;ratioP1;P1;durP2;ratioP2;P2;SDS_P1;SDS_P2;PMS_P1;PMS_P2;Temp;Humidity;BMP_temperature;BMP_pressure;BME280_temperature;BME280_humidity;BME280_pressure;Samples;Min_cycle;Max_cycle;Signal;HPM_P1;HPM_P2
2022/02/26 00:00:21;;;;;;;14.90;4.62;;;;;;;4.74;59.32;100981.09;1799783;98;27782;-70
2022/02/26 00:03:27;;;;;;;9.35;3.70;;;;;;;4.74;59.32;100983.74;1799677;98;27860;-71
2022/02/26 00:06:31;;;;;;;15.10;4.67;;;;;;;4.74;59.41;100986.40;1796555;97;27934;-69
2022/02/26 00:09:32;;;;;;;14.40;5.40;;;;;;;4.74;59.37;100982.42;1791245;99;34055;-70
2022/02/26 00:12:34;;;;;;;13.05;4.58;;;;;;;4.74;59.38;100988.59;1791113;99;29386;-71
2022/02/26 00:15:39;;;;;;;12.25;5.08;;;;;;;4.76;59.48;100988.59;1791358;99;27873;-71
2022/02/26 00:18:43;;;;;;;12.07;5.17;;;;;;;4.75;59.45;100991.67;1791042;99;28708;-69
2022/02/26 00:21:48;;;;;;;7.22;3.22;;;;;;;4.77;59.50;100994.32;1791204;99;31089;-69
2022/02/26 00:24:52;;;;;;;11.65;4.87;;;;;;;4.78;59.51;100992.09;1818384;96;32926;-70
2022/02/26 00:27:52;;;;;;;19.35;7.90;;;;;;;4.80;59.47;101000.45;1801103;98;29598;-70
2022/02/26 00:30:54;;;;;;;26.15;10.72;;;;;;;4.81;59.58;101002.64;1801578;98;27902;-69
2022/02/26 00:33:56;;;;;;;20.30;6.05;;;;;;;4.80;59.70;101007.09;1817589;97;29656;-70
2022/02/26 00:36:58;;;;;;;13.75;4.67;;;;;;;4.82;59.85;101006.63;1818670;97;31072;-70
2022/02/26 00:39:59;;;;;;;10.53;3.85;;;;;;;4.84;59.82;101016.78;1818274;97;33723;-71
2022/02/26 00:43:03;;;;;;;7.28;3.70;;;;;;;4.83;59.80;101017.67;1818627;97;29334;-67
2022/02/26 00:46:08;;;;;;;10.27;3.93;;;;;;;4.82;59.85;101021.66;1833980;96;27867;-70
2022/02/26 00:52:32;;;;;;;7.62;3.62;;;;;;;4.80;60.18;101032.31;1892580;93;31934;-71
2022/02/26 00:55:34;;;;;;;10.98;4.35;;;;;;;4.79;60.41;101036.33;1900817;93;33005;-70
2022/02/26 00:58:36;;;;;;;8.98;3.85;;;;;;;4.77;60.54;101028.83;1897381;93;29465;-70
2022/02/26 01:01:40;;;;;;;8.90;3.50;;;;;;;4.78;60.69;101030.59;1900868;92;27995;-69
2022/02/26 01:04:42;;;;;;;9.38;3.98;;;;;;;4.78;60.80;101037.23;1900962;93;28659;-70
2022/02/26 01:07:46;;;;;;;8.93;3.75;;;;;;;4.76;60.81;101040.34;1929505;90;32008;-70
2022/02/26 01:10:47;;;;;;;7.90;3.85;;;;;;;4.76;61.01;101043.86;1873268;94;33024;-71
2022/02/26 01:13:49;;;;;;;6.90;3.75;;;;;;;4.71;61.04;101047.05;1903958;93;29553;-71
2022/02/26 01:16:51;;;;;;;8.23;3.62;;;;;;;4.68;61.26;101046.62;1873731;95;27825;-69
2022/02/26 01:19:52;;;;;;;10.45;3.85;;;;;;;4.66;61.31;101052.86;1903813;93;28670;-70
2022/02/26 01:22:54;;;;;;;7.25;3.50;;;;;;;4.64;61.53;101055.52;1873854;95;31709;-68
2022/02/26 01:25:55;;;;;;;6.87;4.03;;;;;;;4.62;61.65;101059.09;1903646;92;33852;-69
2022/02/26 01:28:57;;;;;;;9.20;4.85;;;;;;;4.58;62.13;101067.55;1873830;95;29332;-69
2022/02/26 01:31:59;;;;;;;10.45;5.10;;;;;;;4.56;62.65;101073.32;1904020;93;27733;-69
2022/02/26 01:35:01;;;;;;;13.95;5.37;;;;;;;4.50;62.91;101075.61;1873983;95;29879;-68
2022/02/26 01:38:03;;;;;;;9.40;4.97;;;;;;;4.44;63.25;101074.80;1903354;92;31218;-69
2022/02/26 01:41:05;;;;;;;12.15;6.47;;;;;;;4.38;63.55;101077.95;1873598;95;32956;-69
2022/02/26 01:44:07;;;;;;;9.33;5.62;;;;;;;4.34;63.92;101080.66;1887530;94;29347;-69
2022/02/26 01:47:09;;;;;;;11.57;5.67;;;;;;;4.30;64.06;101078.92;1903278;93;27654;-69
2022/02/26 01:50:16;;;;;;;12.40;6.55;;;;;;;4.30;64.26;101085.56;1903722;93;29507;-68
2022/02/26 01:53:18;;;;;;;11.57;6.10;;;;;;;4.24;64.40;101083.86;1903847;92;31861;-68
2022/02/26 01:56:20;;;;;;;16.50;7.15;;;;;;;4.18;64.58;101082.16;1873163;95;32945;-69
2022/02/26 01:59:25;;;;;;;14.65;6.78;;;;;;;4.17;64.65;101084.37;1903504;93;29325;-69
2022/02/26 02:02:30;;;;;;;13.60;6.83;;;;;;;4.15;64.94;101087.48;1911324;92;28341;-69
2022/02/26 02:05:31;;;;;;;14.23;7.40;;;;;;;4.12;65.21;101092.81;1911094;91;28656;-69
2022/02/26 02:08:33;;;;;;;9.73;7.12;;;;;;;4.08;65.29;101089.75;1924926;92;31985;-67
2022/02/26 02:11:36;;;;;;;12.50;7.12;;;;;;;4.06;65.64;101088.45;1931465;92;33839;-70
2022/02/26 02:14:37;;;;;;;12.15;6.97;;;;;;;4.01;65.64;101095.56;1931405;92;29364;-68
2022/02/26 02:17:55;;;;;;;14.10;8.60;;;;;;;3.97;65.76;101097.84;1931672;92;27879;-71
2022/02/26 02:20:57;;;;;;;21.07;10.55;;;;;;;3.93;66.11;101100.94;1931660;90;28678;-69
2022/02/26 02:24:00;;;;;;;20.45;10.88;;;;;;;3.88;66.23;101100.12;1931174;92;31172;-68
2022/02/26 02:27:05;;;;;;;20.75;12.37;;;;;;;3.83;66.28;101100.60;1931432;92;33783;-70
2022/02/26 02:30:11;;;;;;;16.60;9.78;;;;;;;3.79;66.35;101105.48;1931636;92;30113;-69
2022/02/26 02:33:13;;;;;;;19.98;11.12;;;;;;;3.76;66.64;101103.75;1914021;93;27769;-70
2022/02/26 02:36:15;;;;;;;33.95;17.98;;;;;;;3.75;66.89;101109.94;1879301;94;29468;-68
2022/02/26 02:39:16;;;;;;;23.27;12.82;;;;;;;3.72;66.79;101111.29;1898602;93;31148;-67
2022/02/26 02:42:18;;;;;;;27.35;12.80;;;;;;;3.72;67.07;101111.75;1879468;93;33030;-69
2022/02/26 02:45:20;;;;;;;38.75;18.50;;;;;;;3.69;67.11;101108.66;1898923;93;29166;-68
2022/02/26 02:48:22;;;;;;;40.38;17.60;;;;;;;3.69;67.24;101120.58;1879532;94;27793;-67
2022/02/26 02:51:24;;;;;;;37.98;16.23;;;;;;;3.67;67.37;101110.90;1898477;93;28728;-69
2022/02/26 02:54:26;;;;;;;61.65;25.27;;;;;;;3.64;67.45;101112.67;1879295;93;31204;-69
2022/02/26 02:57:28;;;;;;;58.90;25.17;;;;;;;3.62;67.59;101114.91;1898784;93;33002;-69
2022/02/26 03:00:32;;;;;;;54.98;20.77;;;;;;;3.59;67.76;101113.61;1881580;94;29402;-69
2022/02/26 03:03:34;;;;;;;65.17;25.67;;;;;;;3.58;67.89;101119.33;1916046;92;28234;-70
2022/02/26 03:06:39;;;;;;;31.85;14.78;;;;;;;3.57;68.04;101122.88;1915604;92;28657;-70
2022/02/26 03:09:42;;;;;;;34.67;17.12;;;;;;;3.56;68.15;101126.88;1875177;92;31706;-68
2022/02/26 03:12:50;;;;;;;68.83;30.27;;;;;;;3.57;68.37;101124.66;1907284;93;33008;-70
2022/02/26 03:16:00;;;;;;;43.65;23.87;;;;;;;3.56;68.48;101128.20;1906556;93;27881;-68
2022/02/26 03:18:57;;;;;;;22.10;12.45;;;;;;;3.56;68.59;101138.79;1907016;93;27770;-67
2022/02/26 03:21:58;;;;;;;18.05;12.05;;;;;;;3.54;68.69;101141.47;1907203;93;29538;-69
2022/02/26 03:25:00;;;;;;;20.27;10.78;;;;;;;3.53;68.75;101141.45;1907151;93;31075;-69
2022/02/26 03:28:02;;;;;;;17.23;9.78;;;;;;;3.53;68.80;101146.75;1907061;93;32992;-69
2022/02/26 03:31:04;;;;;;;16.32;10.00;;;;;;;3.53;68.97;101154.28;1907026;93;29480;-69
2022/02/26 03:34:06;;;;;;;20.88;12.88;;;;;;;3.53;68.98;101149.41;1907357;93;27906;-68
2022/02/26 03:37:10;;;;;;;23.10;14.75;;;;;;;3.53;69.09;101157.35;1907395;92;27884;-68
2022/02/26 03:40:13;;;;;;;30.00;18.70;;;;;;;3.52;69.24;101162.22;1907006;93;31209;-67
2022/02/26 03:43:17;;;;;;;19.80;12.40;;;;;;;3.50;69.20;101165.75;1915428;92;32532;-68
2022/02/26 03:46:19;;;;;;;18.98;12.35;;;;;;;3.48;69.34;101166.20;1905902;93;30332;-67
2022/02/26 03:49:21;;;;;;;21.15;13.58;;;;;;;3.47;69.41;101169.77;1919207;92;28567;-68
2022/02/26 03:52:23;;;;;;;20.57;12.50;;;;;;;3.46;69.47;101177.28;1919419;92;29593;-68
2022/02/26 03:55:25;;;;;;;21.68;11.20;;;;;;;3.44;69.48;101183.02;1919432;92;30980;-69
2022/02/26 03:58:28;;;;;;;15.03;11.15;;;;;;;3.42;69.44;101186.55;1919283;92;32949;-68
2022/02/26 04:01:29;;;;;;;19.45;13.13;;;;;;;3.40;69.58;101190.55;1888994;94;29417;-69
2022/02/26 04:04:31;;;;;;;18.52;11.57;;;;;;;3.35;69.61;101187.03;1919785;92;27784;-69
2022/02/26 04:07:34;;;;;;;14.75;9.88;;;;;;;3.30;69.53;101197.66;1919563;90;28853;-69
2022/02/26 04:10:36;;;;;;;12.98;8.53;;;;;;;3.25;69.59;101202.55;1907673;93;31769;-69
2022/02/26 04:13:38;;;;;;;13.80;8.25;;;;;;;3.21;69.68;101210.05;1924245;92;33731;-69
2022/02/26 04:16:40;;;;;;;12.28;9.03;;;;;;;3.16;69.71;101211.41;1941919;91;29381;-69
2022/02/26 04:19:42;;;;;;;18.48;8.98;;;;;;;3.09;69.75;101218.92;1924165;92;27784;-69
2022/02/26 04:22:44;;;;;;;14.33;9.43;;;;;;;3.05;69.90;101220.71;1941840;91;29470;-69
2022/02/26 04:25:46;;;;;;;12.93;8.80;;;;;;;3.01;70.07;101226.89;1924136;92;31143;-69
2022/02/26 04:28:48;;;;;;;10.95;8.75;;;;;;;2.98;70.16;101229.12;1941913;91;32962;-68
2022/02/26 04:31:50;;;;;;;13.22;8.65;;;;;;;2.97;70.28;101233.97;1924050;92;29353;-69
2022/02/26 04:34:52;;;;;;;22.62;12.50;;;;;;;2.97;70.46;101235.30;1941903;91;27682;-69
2022/02/26 04:37:53;;;;;;;18.95;11.50;;;;;;;2.99;70.60;101239.25;1941486;91;28885;-68
2022/02/26 04:40:57;;;;;;;22.87;12.88;;;;;;;3.01;70.69;101241.03;1940663;91;31105;-69
2022/02/26 04:43:59;;;;;;;21.07;12.45;;;;;;;3.06;70.85;101246.30;1940317;91;33620;-69
2022/02/26 04:47:01;;;;;;;17.85;12.13;;;;;;;3.08;70.96;101250.25;1927517;92;29306;-69
2022/02/26 04:50:05;;;;;;;17.32;11.97;;;;;;;3.11;70.99;101253.80;1927668;91;27647;-68
2022/02/26 04:53:07;;;;;;;18.55;13.28;;;;;;;3.14;71.03;101255.11;1928192;91;28819;-69
2022/02/26 04:56:09;;;;;;;18.05;11.80;;;;;;;3.17;71.05;101258.18;1930913;91;31031;-67
2022/02/26 04:59:10;;;;;;;14.13;10.40;;;;;;;3.18;70.99;101266.56;1941923;91;33016;-68
2022/02/26 05:02:12;;;;;;;15.68;10.18;;;;;;;3.18;71.01;101273.19;1941330;91;29384;-68
2022/02/26 05:05:14;;;;;;;19.12;12.03;;;;;;;3.22;71.09;101280.66;1941501;91;27781;-68
2022/02/26 05:08:17;;;;;;;15.13;10.68;;;;;;;3.24;71.18;101282.41;1942059;91;28664;-68
2022/02/26 05:11:19;;;;;;;14.98;10.05;;;;;;;3.26;71.22;101277.13;1944751;91;31801;-68
2022/02/26 05:14:21;;;;;;;11.60;9.25;;;;;;;3.26;71.12;101294.34;1944292;91;33628;-68
2022/02/26 05:17:23;;;;;;;14.43;9.58;;;;;;;3.25;71.15;101296.09;1929049;91;30038;-69
2022/02/26 05:20:25;;;;;;;17.57;10.93;;;;;;;3.24;71.08;101306.24;1944614;91;27808;-69
2022/02/26 05:23:28;;;;;;;18.17;12.18;;;;;;;3.24;71.11;101314.64;1944445;91;29278;-69
2022/02/26 05:26:29;;;;;;;22.27;13.28;;;;;;;3.23;71.14;101317.72;1944322;91;31083;-69
2022/02/26 05:29:31;;;;;;;19.12;10.58;;;;;;;3.22;71.18;101319.06;1944579;91;32967;-71
2022/02/26 05:32:33;;;;;;;17.73;10.72;;;;;;;3.19;71.15;101323.94;1944601;91;29320;-70
2022/02/26 05:35:34;;;;;;;14.65;10.82;;;;;;;3.15;71.15;101321.71;1944596;91;27645;-70
2022/02/26 05:38:37;;;;;;;19.25;12.80;;;;;;;3.14;71.21;101323.05;1944421;91;29477;-70
2022/02/26 05:41:39;;;;;;;19.95;10.93;;;;;;;3.12;71.26;101330.11;1944405;91;30514;-69
2022/02/26 05:44:41;;;;;;;21.45;12.43;;;;;;;3.12;71.34;101336.73;1929028;91;32985;-70
2022/02/26 05:47:43;;;;;;;20.25;12.03;;;;;;;3.11;71.45;101338.94;1944591;91;29331;-69
2022/02/26 05:50:44;;;;;;;26.05;15.50;;;;;;;3.09;71.37;101344.25;1944506;91;27738;-70
2022/02/26 05:53:46;;;;;;;23.42;12.93;;;;;;;3.09;71.44;101354.84;1944411;91;28714;-69
2022/02/26 05:56:48;;;;;;;19.70;13.93;;;;;;;3.10;71.58;101365.87;1944313;91;31207;-69
2022/02/26 05:59:49;;;;;;;20.30;12.35;;;;;;;3.11;71.60;101370.28;1928986;92;33762;-69
2022/02/26 06:02:51;;;;;;;16.23;11.68;;;;;;;3.12;71.69;101375.13;1944416;91;29327;-69
2022/02/26 06:05:53;;;;;;;22.35;15.60;;;;;;;3.13;71.75;101381.76;1944632;91;27717;-69
2022/02/26 06:08:54;;;;;;;18.98;12.55;;;;;;;3.13;71.76;101375.56;1946938;91;28794;-69
2022/02/26 06:11:56;;;;;;;21.77;12.45;;;;;;;3.15;71.75;101387.04;1937108;91;31095;-69
2022/02/26 06:14:58;;;;;;;24.85;15.60;;;;;;;3.18;71.87;101386.58;1952505;91;33044;-69
2022/02/26 06:18:00;;;;;;;18.25;13.00;;;;;;;3.27;72.03;101393.63;1936803;91;29539;-69
2022/02/26 06:21:01;;;;;;;19.52;11.35;;;;;;;3.39;72.15;101396.70;1952402;91;27728;-69
2022/02/26 06:24:04;;;;;;;19.75;13.40;;;;;;;3.54;72.25;101403.75;1936931;91;28733;-70
2022/02/26 06:27:06;;;;;;;19.40;12.75;;;;;;;3.67;72.21;101407.68;1952371;90;31264;-69
2022/02/26 06:30:09;;;;;;;19.60;13.22;;;;;;;3.72;72.11;101414.72;1922485;91;32970;-68
2022/02/26 06:33:13;;;;;;;16.77;11.57;;;;;;;3.78;72.11;101417.80;1927845;91;29374;-69
2022/02/26 06:36:14;;;;;;;18.32;12.78;;;;;;;3.83;72.08;101422.64;1952379;89;27626;-69
2022/02/26 06:39:16;;;;;;;16.07;10.53;;;;;;;3.90;72.13;101423.04;1937048;91;28667;-68
2022/02/26 06:42:18;;;;;;;12.63;9.60;;;;;;;3.97;72.17;101427.01;1952311;91;31899;-69
2022/02/26 06:45:20;;;;;;;14.33;10.23;;;;;;;4.03;72.14;101428.31;1905506;93;33918;-68
2022/02/26 06:48:21;;;;;;;14.28;11.43;;;;;;;4.06;72.00;101442.86;1955140;90;29952;-68
2022/02/26 06:51:23;;;;;;;12.55;9.38;;;;;;;4.09;72.09;101449.48;1937088;91;27755;-69
2022/02/26 06:54:25;;;;;;;14.83;10.43;;;;;;;4.09;71.88;101451.71;1951630;91;28727;-70
2022/02/26 06:57:27;;;;;;;11.00;9.30;;;;;;;4.13;72.00;101460.98;1937012;91;32024;-69
2022/02/26 07:00:29;;;;;;;12.80;8.30;;;;;;;4.18;72.05;101464.05;1952209;91;34011;-69
2022/02/26 07:03:31;;;;;;;9.05;6.95;;;;;;;4.25;72.13;101459.59;1905937;93;30063;-69
2022/02/26 07:06:34;;;;;;;9.78;8.63;;;;;;;4.35;72.05;101465.74;1937195;91;28297;-68
2022/02/26 07:09:36;;;;;;;9.68;8.23;;;;;;;4.43;72.01;101475.86;1931149;91;28730;-69
2022/02/26 07:12:38;;;;;;;13.58;10.30;;;;;;;4.50;71.95;101473.63;1942011;91;31943;-69
2022/02/26 07:15:40;;;;;;;10.63;8.58;;;;;;;4.60;71.87;101473.13;1941951;91;33830;-69
2022/02/26 07:18:42;;;;;;;9.60;7.17;;;;;;;4.74;71.93;101478.80;1924023;92;29234;-70
2022/02/26 07:21:44;;;;;;;9.13;7.60;;;;;;;4.86;71.90;101486.23;1941979;91;27915;-70
2022/02/26 07:24:46;;;;;;;17.17;9.63;;;;;;;4.98;71.65;101494.54;1924130;92;28650;-70
2022/02/26 07:27:48;;;;;;;13.15;8.18;;;;;;;5.07;71.53;101495.38;1942038;91;31687;-71
2022/02/26 07:30:52;;;;;;;12.43;9.15;;;;;;;5.15;71.38;101505.48;1923954;92;34008;-71
2022/02/26 07:33:53;;;;;;;15.88;9.23;;;;;;;5.24;71.21;101507.19;1941901;91;30132;-71
2022/02/26 07:36:57;;;;;;;10.68;6.83;;;;;;;5.32;71.09;101513.34;1923481;92;27904;-71
2022/02/26 07:39:58;;;;;;;12.18;8.45;;;;;;;5.37;70.85;101521.27;1941924;91;28659;-71
2022/02/26 07:43:00;;;;;;;14.05;10.53;;;;;;;5.41;70.82;101525.67;1923906;92;31251;-72
2022/02/26 07:46:03;;;;;;;10.08;8.43;;;;;;;5.48;70.74;101537.56;1941726;91;33177;-71
2022/02/26 07:49:05;;;;;;;12.98;9.30;;;;;;;5.47;70.45;101540.22;1923849;92;30487;-70
2022/02/26 07:52:07;;;;;;;11.55;8.35;;;;;;;5.45;70.64;101540.70;1941850;91;27725;-69
2022/02/26 07:55:11;;;;;;;9.85;7.17;;;;;;;5.52;70.57;101544.19;1930976;91;27789;-71
2022/02/26 07:58:12;;;;;;;7.75;6.95;;;;;;;5.57;70.27;101547.23;1938956;91;31095;-69
2022/02/26 08:01:17;;;;;;;9.23;7.00;;;;;;;5.66;70.22;101560.00;1931073;91;33659;-70
2022/02/26 08:04:24;;;;;;;8.25;7.25;;;;;;;5.72;70.19;101558.63;1923184;90;30240;-71
2022/02/26 08:07:26;;;;;;;7.90;6.33;;;;;;;5.76;70.17;101567.02;1941053;91;28215;-71
2022/02/26 08:10:28;;;;;;;8.18;6.35;;;;;;;5.81;70.13;101567.83;1910042;92;28659;-69
2022/02/26 08:13:30;;;;;;;7.45;6.58;;;;;;;5.90;70.06;101569.52;1897733;93;31088;-70
2022/02/26 08:16:32;;;;;;;8.30;7.40;;;;;;;6.02;69.98;101570.80;1901106;93;32887;-69
2022/02/26 08:19:34;;;;;;;8.90;7.42;;;;;;;6.13;69.91;101575.97;1871399;95;29382;-70
2022/02/26 08:22:36;;;;;;;10.43;8.80;;;;;;;6.21;69.67;101585.20;1901307;93;27725;-70
2022/02/26 08:25:37;;;;;;;9.83;7.50;;;;;;;6.30;69.71;101581.12;1871409;95;29483;-71
2022/02/26 08:28:39;;;;;;;10.68;6.30;;;;;;;6.39;69.75;101581.48;1901200;93;32029;-70
2022/02/26 08:31:40;;;;;;;7.12;6.37;;;;;;;6.44;69.54;101592.06;1871269;95;33159;-70
2022/02/26 08:34:42;;;;;;;7.58;6.35;;;;;;;6.43;69.10;101599.18;1901128;93;30099;-70
2022/02/26 08:37:46;;;;;;;12.05;7.42;;;;;;;6.45;69.14;101599.16;1871369;95;27725;-71
2022/02/26 08:40:47;;;;;;;14.75;9.50;;;;;;;6.45;69.21;101601.38;1901490;93;29466;-69
2022/02/26 08:43:49;;;;;;;24.30;13.90;;;;;;;6.49;68.98;101611.54;1871235;95;30603;-69
2022/02/26 08:46:51;;;;;;;13.00;8.73;;;;;;;6.48;69.02;101604.45;1901108;93;33106;-71
2022/02/26 08:49:52;;;;;;;12.10;7.92;;;;;;;6.52;69.14;101608.38;1870066;95;29436;-72
2022/02/26 08:52:54;;;;;;;11.12;7.00;;;;;;;6.63;69.11;101607.36;1901180;93;27771;-71
2022/02/26 08:56:03;;;;;;;9.50;5.80;;;;;;;6.78;69.04;101615.19;1870573;95;29501;-71
2022/02/26 08:59:11;;;;;;;14.23;7.83;;;;;;;6.96;69.07;101612.72;1901069;93;31231;-71
2022/02/26 09:02:20;;;;;;;16.00;7.92;;;;;;;7.17;68.93;101611.11;1870962;95;32988;-69
2022/02/26 09:05:22;;;;;;;8.55;4.62;;;;;;;7.34;68.50;101620.21;1901521;93;29355;-72
2022/02/26 09:08:24;;;;;;;7.37;4.58;;;;;;;7.50;68.29;101622.17;1871475;95;27747;-72
2022/02/26 09:11:26;;;;;;;6.85;5.08;;;;;;;7.64;68.23;101627.30;1918981;91;28707;-71
2022/02/26 09:14:31;;;;;;;6.55;3.55;;;;;;;7.80;68.01;101629.25;1941716;91;31924;-69
2022/02/26 09:17:33;;;;;;;7.72;4.00;;;;;;;7.98;68.17;101634.75;1913608;92;33796;-74
2022/02/26 09:20:35;;;;;;;16.23;9.65;;;;;;;8.09;67.68;101637.23;1938678;91;29388;-72
2022/02/26 09:23:37;;;;;;;11.90;8.68;;;;;;;8.09;67.34;101643.44;1893242;93;27719;-71
2022/02/26 09:26:39;;;;;;;13.38;8.80;;;;;;;8.08;67.07;101643.01;1928894;92;28535;-73
2022/02/26 09:29:41;;;;;;;12.30;9.08;;;;;;;8.14;67.10;101648.69;1917961;92;31900;-72
2022/02/26 09:32:44;;;;;;;10.48;6.97;;;;;;;8.17;66.91;101656.64;1941564;91;32957;-76
2022/02/26 09:35:45;;;;;;;7.10;4.45;;;;;;;8.23;66.97;101667.66;1923468;92;29357;-78
2022/02/26 09:38:48;;;;;;;7.40;3.52;;;;;;;8.27;66.66;101668.05;1941546;91;27880;-71
2022/02/26 09:41:50;;;;;;;7.80;4.72;;;;;;;8.18;66.09;101675.33;1922873;92;28744;-77
2022/02/26 09:44:52;;;;;;;10.25;7.08;;;;;;;8.13;65.91;101672.28;1941740;91;32021;-73
2022/02/26 09:47:53;;;;;;;13.75;8.50;;;;;;;8.11;66.24;101682.13;1923809;92;33773;-71
2022/02/26 09:50:55;;;;;;;11.68;7.50;;;;;;;8.08;66.13;101692.39;1942028;91;29337;-71
2022/02/26 09:53:57;;;;;;;9.50;4.40;;;;;;;8.07;66.21;101686.62;1923995;92;27742;-70
2022/02/26 09:56:59;;;;;;;11.65;6.40;;;;;;;8.01;66.03;101693.41;1941829;91;28805;-77
2022/02/26 10:00:01;;;;;;;12.43;6.05;;;;;;;7.94;66.11;101699.30;1924089;92;31043;-76
2022/02/26 10:03:04;;;;;;;14.55;7.50;;;;;;;7.86;66.16;101702.53;1941948;91;33141;-75
2022/02/26 10:06:16;;;;;;;7.62;5.00;;;;;;;7.80;66.23;101711.95;1924041;92;30173;-75
2022/02/26 10:09:18;;;;;;;16.97;11.00;;;;;;;7.74;66.47;101707.16;1941896;91;27730;-72
2022/02/26 10:12:30;;;;;;;20.02;10.80;;;;;;;7.65;66.65;101719.28;1941587;91;28645;-69
2022/02/26 10:15:38;;;;;;;13.18;8.10;;;;;;;7.59;66.71;101716.72;1941796;91;31089;-69
2022/02/26 10:18:53;;;;;;;15.30;8.20;;;;;;;7.55;66.84;101716.33;1923903;92;33006;-72
2022/02/26 10:21:58;;;;;;;12.05;6.03;;;;;;;7.61;67.15;101724.25;1941785;91;29380;-68
2022/02/26 10:25:08;;;;;;;10.95;6.45;;;;;;;7.69;66.90;101721.01;1924167;92;27752;-67
2022/02/26 10:28:23;;;;;;;8.20;5.00;;;;;;;7.79;67.23;101720.42;1931470;91;28687;-76
2022/02/26 10:31:24;;;;;;;4.40;3.30;;;;;;;7.87;66.97;101721.64;1955445;90;31226;-71
2022/02/26 10:34:34;;;;;;;3.42;2.80;;;;;;;7.91;66.28;101727.36;1959364;90;33507;-70
2022/02/26 10:37:36;;;;;;;5.33;3.72;;;;;;;7.83;66.28;101735.48;1959381;90;29382;-72
2022/02/26 10:41:06;;;;;;;7.35;3.20;;;;;;;7.88;66.66;101735.41;1959725;90;27605;-71
2022/02/26 10:44:08;;;;;;;6.97;4.25;;;;;;;7.79;65.80;101735.53;1959382;90;28759;-77
2022/02/26 10:47:13;;;;;;;6.12;4.17;;;;;;;7.56;65.76;101732.30;1959585;90;32022;-68
2022/02/26 10:50:20;;;;;;;6.53;4.83;;;;;;;7.46;66.13;101740.00;1959081;90;34838;-69
2022/02/26 10:53:24;;;;;;;14.05;7.50;;;;;;;7.45;66.10;101739.10;1949568;90;29339;-71
2022/02/26 10:56:38;;;;;;;10.03;6.15;;;;;;;7.62;67.01;101735.32;1893020;94;28177;-68
2022/02/26 10:59:43;;;;;;;10.23;7.20;;;;;;;7.82;66.95;101740.83;1924311;91;29488;-67
2022/02/26 11:02:45;;;;;;;7.17;5.65;;;;;;;7.96;66.12;101744.63;1941993;91;31058;-66
2022/02/26 11:05:48;;;;;;;13.28;7.60;;;;;;;8.09;65.71;101748.87;1923802;92;34329;-68
2022/02/26 11:08:51;;;;;;;13.08;8.65;;;;;;;8.09;65.26;101745.33;1942035;91;29783;-63
2022/02/26 11:11:57;;;;;;;12.58;7.72;;;;;;;8.09;65.05;101742.66;1910804;92;27726;-62
2022/02/26 11:15:02;;;;;;;13.48;7.72;;;;;;;8.17;65.33;101732.72;1873766;95;29652;-65
2022/02/26 11:18:06;;;;;;;9.73;6.62;;;;;;;8.37;65.46;101733.71;1903954;93;31984;-70
2022/02/26 11:21:14;;;;;;;11.70;6.75;;;;;;;8.55;65.42;101731.66;1874021;95;33760;-68
2022/02/26 11:24:18;;;;;;;13.75;6.30;;;;;;;8.73;65.11;101738.00;1931734;92;30308;-67
2022/02/26 11:27:25;;;;;;;17.70;9.57;;;;;;;8.84;64.69;101731.59;1933941;92;28241;-67
2022/02/26 11:30:32;;;;;;;18.77;9.95;;;;;;;8.97;64.65;101729.97;1912844;93;28758;-68
2022/02/26 11:33:35;;;;;;;11.18;6.50;;;;;;;9.15;65.03;101723.83;1967755;90;31671;-68
2022/02/26 11:36:59;;;;;;;10.35;6.30;;;;;;;9.30;64.77;101730.66;1967670;90;32988;-66
2022/02/26 11:40:13;;;;;;;14.35;7.72;;;;;;;9.42;64.54;101726.84;1959967;90;30318;-67
2022/02/26 11:43:37;;;;;;;8.83;4.12;;;;;;;9.53;64.46;101717.22;1968053;90;27574;-68
2022/02/26 11:46:39;;;;;;;9.70;4.15;;;;;;;9.56;62.34;101717.16;1967331;88;28846;-68
2022/02/26 11:50:08;;;;;;;10.10;5.03;;;;;;;9.61;63.34;101707.68;1967591;90;31840;-68
2022/02/26 11:53:14;;;;;;;8.55;4.62;;;;;;;9.64;63.13;101704.50;1967473;90;32964;-67
2022/02/26 11:56:15;;;;;;;8.98;4.70;;;;;;;9.45;61.95;101710.70;1964660;90;30095;-68
2022/02/26 11:59:17;;;;;;;8.28;4.90;;;;;;;9.30;61.99;101715.05;1904179;93;27836;-70
2022/02/26 12:02:19;;;;;;;10.70;5.22;;;;;;;9.04;61.62;101722.70;1873192;94;28536;-68
2022/02/26 12:05:24;;;;;;;14.73;6.67;;;;;;;8.78;61.75;101723.22;1910189;92;31701;-68
2022/02/26 12:08:55;;;;;;;8.53;5.30;;;;;;;8.49;61.83;101735.33;1874163;94;32822;-68
2022/02/26 12:11:57;;;;;;;9.25;5.10;;;;;;;8.19;62.58;101737.12;1898345;93;29540;-66
2022/02/26 12:14:59;;;;;;;9.73;5.65;;;;;;;8.05;63.05;101743.14;1922481;92;27640;-68
2022/02/26 12:18:12;;;;;;;9.60;6.08;;;;;;;7.98;63.49;101742.36;1900793;92;29146;-67
2022/02/26 12:21:18;;;;;;;10.48;5.78;;;;;;;8.00;63.57;101740.55;1913134;92;31067;-67
2022/02/26 12:24:23;;;;;;;10.28;5.47;;;;;;;7.98;63.58;101742.83;1933470;91;33042;-68
2022/02/26 12:27:35;;;;;;;10.55;5.28;;;;;;;8.00;64.00;101737.88;1901179;92;30185;-68
2022/02/26 12:31:07;;;;;;;14.55;7.65;;;;;;;8.10;64.10;101737.75;1900529;93;27676;-67
2022/02/26 12:34:13;;;;;;;16.67;10.95;;;;;;;8.14;63.64;101741.67;1922278;92;29089;-68
2022/02/26 12:37:19;;;;;;;15.08;8.40;;;;;;;8.22;63.63;101737.55;1873862;94;32192;-67
2022/02/26 12:40:24;;;;;;;22.82;11.93;;;;;;;8.20;63.15;101732.21;1922150;92;33074;-66
2022/02/26 12:43:30;;;;;;;25.40;14.70;;;;;;;8.25;63.12;101737.94;1892387;94;29318;-69
2022/02/26 12:46:33;;;;;;;14.83;9.45;;;;;;;8.29;62.96;101732.98;1922143;92;27672;-67
2022/02/26 12:49:36;;;;;;;18.52;8.63;;;;;;;8.28;62.62;101737.89;1901202;93;28672;-67
2022/02/26 12:52:39;;;;;;;15.15;8.65;;;;;;;8.31;62.32;101731.17;1922110;92;32447;-68
2022/02/26 12:55:41;;;;;;;15.75;8.30;;;;;;;8.35;61.83;101735.56;1901109;93;33029;-68
2022/02/26 12:58:42;;;;;;;18.45;9.90;;;;;;;8.31;60.98;101729.83;1922257;92;29338;-68
2022/02/26 13:01:47;;;;;;;10.53;6.55;;;;;;;8.26;61.20;101735.27;1900916;93;28373;-67
2022/02/26 13:04:49;;;;;;;17.52;8.10;;;;;;;8.26;61.12;101740.59;1922257;92;29499;-70
2022/02/26 13:08:01;;;;;;;21.52;9.93;;;;;;;8.32;61.58;101735.14;1900820;92;31033;-68
2022/02/26 13:11:03;;;;;;;15.43;8.55;;;;;;;8.36;61.04;101738.63;1918823;91;33080;-70
2022/02/26 13:14:07;;;;;;;13.70;7.40;;;;;;;8.38;60.96;101739.48;1878170;93;28571;-65
2022/02/26 13:17:09;;;;;;;21.77;8.48;;;;;;;8.39;60.78;101743.05;1870706;95;28009;-69
2022/02/26 13:20:23;;;;;;;13.60;6.40;;;;;;;8.46;60.72;101738.91;1901158;93;29015;-69
2022/02/26 13:23:22;;;;;;;14.15;7.17;;;;;;;8.45;60.30;101744.27;1905765;92;31250;-69
2022/02/26 13:26:27;;;;;;;15.95;7.10;;;;;;;8.35;59.79;101746.23;1873813;93;33271;-73
2022/02/26 13:29:30;;;;;;;16.42;8.43;;;;;;;8.28;60.40;101742.77;1900206;93;29392;-72
2022/02/26 13:32:43;;;;;;;14.78;7.15;;;;;;;8.30;59.88;101749.43;1878501;93;27705;-70
2022/02/26 13:35:45;;;;;;;19.57;8.40;;;;;;;8.21;59.99;101747.80;1897519;93;28908;-70
2022/02/26 13:38:47;;;;;;;17.05;9.30;;;;;;;8.20;60.26;101756.23;1901143;93;31053;-69
2022/02/26 13:42:03;;;;;;;19.52;8.63;;;;;;;8.18;60.39;101753.17;1896786;93;32986;-71
2022/02/26 13:45:16;;;;;;;18.57;7.25;;;;;;;8.19;60.37;101753.61;1901139;93;28957;-70
2022/02/26 13:48:20;;;;;;;17.77;7.55;;;;;;;8.21;60.84;101749.13;1901635;92;27734;-70
2022/02/26 13:51:22;;;;;;;19.43;7.87;;;;;;;8.29;60.74;101753.88;1916365;92;28850;-72
2022/02/26 13:54:24;;;;;;;19.95;7.28;;;;;;;8.32;60.52;101759.17;1875356;93;31926;-71
2022/02/26 13:57:42;;;;;;;16.40;5.67;;;;;;;8.30;59.87;101760.11;1873100;93;32990;-70
2022/02/26 14:00:43;;;;;;;19.37;6.08;;;;;;;8.27;60.01;101762.83;1866369;94;30631;-72
2022/02/26 14:03:57;;;;;;;16.62;6.97;;;;;;;8.26;59.96;101756.63;1889661;93;27837;-70
2022/02/26 14:07:08;;;;;;;18.85;10.32;;;;;;;8.22;59.89;101757.56;1876935;94;28710;-70
2022/02/26 14:10:07;;;;;;;30.57;16.15;;;;;;;8.19;59.85;101760.28;1863193;94;28140;-76
2022/02/26 14:13:15;;;;;;;13.65;6.22;;;;;;;8.12;59.87;101774.62;1875003;94;33069;-79
2022/02/26 14:16:19;;;;;;;10.50;5.72;;;;;;;8.06;59.64;101775.59;1872988;93;30357;-76